createdAt,value
2023-01-03T00:01:41.615Z,3.90
2023-01-03T00:04:08.481Z,1.35
2023-01-03T00:06:46.394Z,1.30
2023-01-03T00:09:16.308Z,2.25
2023-01-03T00:12:01.719Z,1.65
2023-01-03T00:14:31.437Z,2.28
2023-01-03T00:16:59.991Z,2.42
2023-01-03T00:19:28.614Z,2.03
2023-01-03T00:21:55.703Z,1.85
2023-01-03T00:24:22.756Z,2.10
2023-01-03T00:26:49.413Z,1.95
2023-01-03T00:29:16.537Z,1.73
2023-01-03T00:31:43.207Z,1.45
2023-01-03T00:34:10.101Z,1.98
2023-01-03T00:36:37.352Z,1.50
2023-01-03T00:39:04.272Z,1.77
2023-01-03T00:41:30.828Z,2.80
2023-01-03T00:43:57.469Z,2.72
2023-01-03T00:46:24.433Z,1.77
2023-01-03T00:48:51.289Z,2.03
2023-01-03T00:51:26.450Z,3.08
2023-01-03T00:53:56.032Z,2.35
2023-01-03T00:56:25.168Z,0.90
2023-01-03T00:58:52.123Z,1.38
2023-01-03T01:01:42.458Z,1.30
2023-01-03T01:04:32.920Z,1.38
2023-01-03T01:07:01.752Z,1.65
2023-01-03T01:09:34.154Z,1.48
2023-01-03T01:12:00.752Z,1.05
2023-01-03T01:14:28.979Z,0.85
2023-01-03T01:17:03.955Z,1.45
2023-01-03T01:19:36.488Z,2.05
2023-01-03T01:22:03.544Z,0.97
2023-01-03T01:24:30.127Z,1.55
2023-01-03T01:26:56.655Z,1.88
2023-01-03T01:29:23.190Z,1.50
2023-01-03T01:31:50.039Z,1.85
2023-01-03T01:34:17.059Z,2.17
2023-01-03T01:36:44.746Z,0.68
2023-01-03T01:39:20.848Z,2.58
2023-01-03T01:42:07.696Z,1.23
2023-01-03T01:44:55.281Z,2.85
2023-01-03T01:47:49.398Z,0.90
2023-01-03T01:52:53.018Z,1.25
2023-01-03T01:55:23.345Z,2.88
2023-01-03T01:57:50.088Z,1.20
2023-01-03T02:00:16.931Z,1.30
2023-01-03T02:02:44.395Z,1.55
2023-01-03T02:05:11.496Z,1.42
2023-01-03T02:07:38.558Z,1.55
2023-01-03T02:10:05.795Z,2.17
2023-01-03T02:12:59.146Z,2.15
2023-01-03T02:15:44.203Z,1.73
2023-01-03T02:18:29.194Z,1.27
2023-01-03T02:21:20.477Z,2.20
2023-01-03T02:24:35.162Z,2.95
2023-01-03T02:30:05.127Z,1.60
2023-01-03T02:32:45.696Z,2.10
2023-01-03T02:35:29.859Z,1.08
2023-01-03T02:37:59.284Z,1.10
2023-01-03T02:40:34.998Z,2.55
2023-01-03T02:43:07.335Z,1.70
2023-01-03T02:45:42.545Z,1.30
2023-01-03T02:48:23.618Z,1.45
2023-01-03T02:50:53.014Z,1.58
2023-01-03T02:53:28.025Z,1.52
2023-01-03T02:55:57.165Z,1.50
2023-01-03T02:58:26.000Z,0.57
2023-01-03T03:00:56.078Z,3.88
2023-01-03T03:03:27.551Z,1.55
2023-01-03T03:06:05.064Z,1.17
2023-01-03T03:08:31.644Z,1.17
2023-01-03T03:11:16.819Z,1.30
2023-01-03T03:13:50.492Z,1.77
2023-01-03T03:16:47.970Z,1.52
2023-01-03T03:19:53.205Z,0.98
2023-01-03T03:22:49.977Z,1.88
2023-01-03T03:25:21.445Z,1.48
2023-01-03T03:28:08.002Z,1.60
2023-01-03T03:30:38.689Z,1.33
2023-01-03T03:33:06.541Z,1.63
2023-01-03T03:35:46.763Z,1.55
2023-01-03T03:38:15.320Z,1.40
2023-01-03T03:41:05.935Z,1.20
2023-01-03T03:43:56.420Z,1.80
2023-01-03T03:46:30.068Z,1.67
2023-01-03T03:49:36.281Z,1.23
2023-01-03T03:52:04.622Z,1.05
2023-01-03T03:54:34.914Z,0.80
2023-01-03T03:57:14.026Z,1.77
2023-01-03T03:59:41.849Z,1.08
2023-01-03T04:02:08.876Z,1.67
2023-01-03T04:04:40.198Z,1.77
2023-01-03T04:07:06.825Z,2.05
2023-01-03T04:09:33.523Z,0.88
2023-01-03T04:12:00.087Z,1.10
2023-01-03T04:14:26.653Z,0.80
2023-01-03T04:16:53.299Z,1.23
2023-01-03T04:19:19.925Z,2.17
2023-01-03T04:21:46.450Z,1.27
2023-01-03T04:24:12.972Z,1.45
2023-01-03T04:26:39.515Z,1.38
2023-01-03T04:29:06.047Z,2.38
2023-01-03T04:31:32.613Z,0.73
2023-01-03T04:33:59.167Z,1.17
2023-01-03T04:36:25.693Z,1.55
2023-01-03T04:38:52.265Z,1.67
2023-01-03T04:41:18.868Z,1.35
2023-01-03T04:44:04.616Z,3.10
2023-01-03T04:46:36.642Z,2.00
2023-01-03T04:49:04.217Z,1.13
2023-01-03T04:51:31.069Z,1.23
2023-01-03T04:53:57.606Z,0.60
2023-01-03T04:56:29.326Z,2.38
2023-01-03T04:58:56.408Z,1.15
2023-01-03T05:01:23.224Z,0.73
2023-01-03T05:03:50.569Z,0.80
2023-01-03T05:06:17.759Z,1.38
2023-01-03T05:08:46.898Z,1.20
2023-01-03T05:11:13.939Z,1.35
2023-01-03T05:13:40.466Z,1.60
2023-01-03T05:16:12.130Z,1.90
2023-01-03T05:18:38.983Z,1.55
2023-01-03T05:21:25.735Z,3.17
2023-01-03T05:24:12.606Z,1.40
2023-01-03T05:26:40.452Z,3.55
2023-01-03T05:29:07.441Z,1.17
2023-01-03T05:31:34.043Z,0.95
2023-01-03T05:34:00.822Z,3.05
2023-01-03T05:36:27.365Z,2.03
2023-01-03T05:38:53.918Z,1.00
2023-01-03T05:41:40.486Z,1.67
2023-01-03T05:44:07.197Z,2.22
2023-01-03T05:46:33.937Z,0.73
2023-01-03T05:49:00.597Z,2.35
2023-01-03T05:51:27.158Z,1.98
2023-01-03T05:53:53.722Z,1.23
2023-01-03T05:56:20.254Z,1.42
2023-01-03T05:58:47.028Z,1.50
2023-01-03T06:01:15.077Z,1.25
2023-01-03T06:03:45.953Z,3.85
2023-01-03T06:06:14.130Z,1.45
2023-01-03T06:08:41.110Z,1.20
2023-01-03T06:11:14.839Z,2.15
2023-01-03T06:13:41.686Z,1.83
2023-01-03T06:16:37.485Z,3.25
2023-01-03T06:19:05.320Z,2.08
2023-01-03T06:21:31.847Z,1.30
2023-01-03T06:23:58.549Z,1.52
2023-01-03T06:26:25.287Z,1.23
2023-01-03T06:28:52.206Z,1.00
2023-01-03T06:31:19.592Z,1.55
2023-01-03T06:33:47.815Z,3.40
2023-01-03T06:36:17.170Z,3.15
2023-01-03T06:38:43.780Z,1.52
2023-01-03T06:41:10.763Z,1.40
2023-01-03T06:43:37.466Z,1.77
2023-01-03T06:46:22.923Z,1.40
2023-01-03T06:49:08.274Z,3.10
2023-01-03T06:51:53.712Z,1.80
2023-01-03T06:54:23.388Z,2.60
2023-01-03T06:56:51.096Z,2.40
2023-01-03T06:59:18.358Z,2.05
2023-01-03T07:01:46.001Z,1.40
2023-01-03T07:04:12.913Z,1.55
2023-01-03T07:06:40.253Z,1.65
2023-01-03T07:09:07.139Z,2.33
2023-01-03T07:11:34.158Z,1.92
2023-01-03T07:14:02.403Z,1.90
2023-01-03T07:16:36.905Z,1.25
2023-01-03T07:19:05.624Z,1.15
2023-01-03T07:21:34.339Z,1.75
2023-01-03T07:24:02.695Z,2.65
2023-01-03T07:26:30.965Z,2.65
2023-01-03T07:28:58.450Z,1.45
2023-01-03T07:31:25.256Z,2.67
2023-01-03T07:33:53.096Z,1.90
2023-01-03T07:36:20.926Z,2.88
2023-01-03T07:38:47.959Z,4.00
2023-01-03T07:41:15.261Z,2.90
2023-01-03T07:43:45.563Z,3.85
2023-01-03T07:46:23.561Z,2.75
2023-01-03T07:48:51.795Z,1.45
2023-01-03T07:51:20.222Z,2.13
2023-01-03T07:53:50.008Z,2.05
2023-01-03T07:56:19.958Z,1.48
2023-01-03T07:58:47.385Z,2.92
2023-01-03T08:01:16.105Z,1.90
2023-01-03T08:03:43.399Z,1.38
2023-01-03T08:06:15.401Z,1.25
2023-01-03T08:08:42.204Z,3.10
2023-01-03T08:11:31.794Z,1.98
2023-01-03T08:13:58.419Z,2.15
2023-01-03T08:16:25.440Z,1.90
2023-01-03T08:18:52.193Z,3.30
2023-01-03T08:21:18.965Z,3.70
2023-01-03T08:23:45.585Z,4.32
2023-01-03T08:26:14.719Z,3.55
2023-01-03T08:28:42.572Z,2.88
2023-01-03T08:31:16.159Z,4.25
2023-01-03T08:33:49.815Z,7.55
2023-01-03T08:36:16.896Z,5.78
2023-01-03T08:38:50.768Z,5.57
2023-01-03T08:41:21.027Z,5.55
2023-01-03T08:43:48.364Z,3.55
2023-01-03T08:46:16.059Z,5.53
2023-01-03T08:48:43.322Z,4.10
2023-01-03T08:51:09.879Z,6.38
2023-01-03T08:53:36.423Z,4.10
2023-01-03T08:56:03.015Z,6.75
2023-01-03T08:58:29.570Z,9.20
2023-01-03T09:00:56.138Z,5.20
2023-01-03T09:03:22.800Z,7.75
2023-01-03T09:05:49.555Z,4.47
2023-01-03T09:08:18.492Z,5.05
2023-01-03T09:10:47.947Z,4.40
2023-01-03T09:13:14.611Z,6.28
2023-01-03T09:15:41.310Z,7.60
2023-01-03T09:18:08.894Z,3.13
2023-01-03T09:20:35.752Z,5.53
2023-01-03T09:23:02.290Z,4.07
2023-01-03T09:25:34.876Z,3.40
2023-01-03T09:28:03.589Z,3.33
2023-01-03T09:30:30.127Z,6.85
2023-01-03T09:32:56.672Z,4.30
2023-01-03T09:35:23.374Z,8.18
2023-01-03T09:37:49.993Z,4.03
2023-01-03T09:40:16.820Z,5.03
2023-01-03T09:43:02.130Z,3.78
2023-01-03T09:45:31.236Z,4.18
2023-01-03T09:47:58.677Z,6.00
2023-01-03T09:50:39.360Z,4.53
2023-01-03T09:53:38.578Z,3.40
2023-01-03T09:56:24.111Z,5.18
2023-01-03T09:59:20.137Z,2.80
2023-01-03T10:02:27.189Z,3.58
2023-01-03T10:05:23.221Z,8.10
2023-01-03T10:08:02.105Z,10.27
2023-01-03T10:10:31.612Z,10.15
2023-01-03T10:13:19.736Z,10.43
2023-01-03T10:16:05.486Z,11.02
2023-01-03T10:18:53.917Z,13.48
2023-01-03T10:21:38.382Z,13.77
2023-01-03T10:24:26.391Z,8.80
2023-01-03T10:26:57.352Z,14.43
2023-01-03T10:29:24.188Z,11.63
2023-01-03T10:32:12.528Z,13.10
2023-01-03T10:34:39.214Z,11.13
2023-01-03T10:37:18.939Z,16.33
2023-01-03T10:39:45.506Z,11.70
2023-01-03T10:42:21.556Z,10.80
2023-01-03T10:45:00.916Z,11.20
2023-01-03T10:47:27.743Z,9.00
2023-01-03T10:50:05.995Z,11.85
2023-01-03T10:52:39.886Z,9.75
2023-01-03T10:55:15.809Z,9.05
2023-01-03T10:57:50.559Z,6.93
2023-01-03T11:00:26.444Z,10.45
2023-01-03T11:02:54.725Z,10.43
2023-01-03T11:05:26.019Z,8.38
2023-01-03T11:07:56.181Z,13.23
2023-01-03T11:10:23.643Z,10.80
2023-01-03T11:12:50.507Z,7.45
2023-01-03T11:15:37.819Z,10.05
2023-01-03T11:18:15.115Z,7.25
2023-01-03T11:21:34.227Z,8.20
2023-01-03T11:24:29.450Z,8.10
2023-01-03T11:29:31.135Z,7.00
2023-01-03T11:32:10.538Z,7.15
2023-01-03T11:35:22.384Z,6.93
2023-01-03T11:37:51.608Z,9.75
2023-01-03T11:40:25.106Z,6.90
2023-01-03T11:45:44.801Z,7.82
2023-01-03T11:48:14.743Z,8.68
2023-01-03T11:50:55.142Z,9.93
2023-01-03T11:53:37.679Z,5.63
2023-01-03T11:56:31.134Z,6.95
2023-01-03T11:59:03.895Z,6.20
2023-01-03T12:01:55.274Z,7.97
2023-01-03T12:04:54.034Z,8.50
2023-01-03T12:07:48.015Z,8.68
2023-01-03T12:10:16.660Z,5.05
2023-01-03T12:13:01.828Z,7.68
2023-01-03T12:15:46.311Z,8.77
2023-01-03T12:18:25.250Z,8.98
2023-01-03T12:20:57.300Z,6.10
2023-01-03T12:23:38.039Z,7.45
2023-01-03T12:26:08.090Z,7.15
2023-01-03T12:28:34.560Z,6.10
2023-01-03T12:31:05.533Z,5.93
2023-01-03T12:33:46.421Z,6.32
2023-01-03T12:36:43.190Z,6.10
2023-01-03T12:39:36.957Z,4.95
2023-01-03T12:42:22.018Z,7.22
2023-01-03T12:44:55.565Z,5.10
2023-01-03T12:50:01.672Z,5.55
2023-01-03T12:52:29.200Z,4.72
2023-01-03T12:55:25.210Z,6.68
2023-01-03T12:58:11.451Z,6.35
2023-01-03T13:00:58.968Z,6.47
2023-01-03T13:03:38.984Z,6.00
2023-01-03T13:06:19.594Z,6.25
2023-01-03T13:09:00.340Z,5.82
2023-01-03T13:11:43.082Z,8.32
2023-01-03T13:14:27.585Z,6.65
2023-01-03T13:16:56.403Z,5.85
2023-01-03T13:19:22.884Z,5.07
2023-01-03T13:21:55.150Z,4.80
2023-01-03T13:24:41.789Z,4.80
2023-01-03T13:27:17.199Z,6.90
2023-01-03T13:29:44.658Z,5.20
2023-01-03T13:32:18.284Z,5.72
2023-01-03T13:34:45.039Z,4.30
2023-01-03T13:37:16.426Z,5.60
2023-01-03T13:39:51.706Z,6.05
2023-01-03T13:42:27.425Z,4.70
2023-01-03T13:45:15.913Z,5.30
2023-01-03T13:47:48.811Z,4.95
2023-01-03T13:50:34.064Z,4.53
2023-01-03T13:53:00.560Z,5.07
2023-01-03T13:55:40.556Z,4.32
2023-01-03T13:58:28.162Z,4.18
2023-01-03T14:01:05.540Z,5.22
2023-01-03T14:03:55.147Z,4.13
2023-01-03T14:06:40.409Z,4.15
2023-01-03T14:09:25.410Z,4.88
2023-01-03T14:12:14.994Z,3.88
2023-01-03T14:14:42.009Z,3.83
2023-01-03T14:17:20.380Z,5.00
2023-01-03T14:19:51.497Z,6.35
2023-01-03T14:22:31.653Z,4.18
2023-01-03T14:24:59.263Z,4.10
2023-01-03T14:27:52.218Z,4.07
2023-01-03T14:30:20.877Z,3.72
2023-01-03T14:32:47.663Z,5.60
2023-01-03T14:35:33.946Z,4.50
2023-01-03T14:38:06.256Z,4.95
2023-01-03T14:40:33.479Z,4.55
2023-01-03T14:43:03.985Z,3.05
2023-01-03T14:45:30.558Z,3.47
2023-01-03T14:47:57.107Z,4.10
2023-01-03T14:50:27.584Z,4.18
2023-01-03T14:52:56.309Z,2.80
2023-01-03T14:55:27.436Z,4.13
2023-01-03T14:57:54.785Z,2.90
2023-01-03T15:00:32.212Z,4.45
2023-01-03T15:02:59.478Z,4.80
2023-01-03T15:05:38.330Z,2.95
2023-01-03T15:08:31.486Z,3.90
2023-01-03T15:11:06.011Z,3.80
2023-01-03T15:13:37.408Z,4.22
2023-01-03T15:16:06.978Z,4.50
2023-01-03T15:18:36.775Z,3.03
2023-01-03T15:21:05.101Z,4.57
2023-01-03T15:23:31.574Z,4.22
2023-01-03T15:25:59.452Z,4.18
2023-01-03T15:28:31.173Z,7.28
2023-01-03T15:31:23.818Z,3.85
2023-01-03T15:34:14.635Z,3.38
2023-01-03T15:36:41.815Z,3.97
2023-01-03T15:39:40.028Z,4.85
2023-01-03T15:42:51.752Z,5.80
2023-01-03T15:45:21.800Z,4.40
2023-01-03T15:47:50.182Z,3.97
2023-01-03T15:50:21.178Z,3.28
2023-01-03T15:52:48.132Z,4.40
2023-01-03T15:55:15.833Z,4.50
2023-01-03T15:57:49.563Z,3.75
2023-01-03T16:00:18.967Z,4.28
2023-01-03T16:02:46.102Z,4.03
2023-01-03T16:05:22.151Z,4.78
2023-01-03T16:07:49.420Z,4.88
2023-01-03T16:10:16.022Z,4.00
2023-01-03T16:12:42.927Z,4.53
2023-01-03T16:15:17.330Z,4.28
2023-01-03T16:17:44.075Z,5.18
2023-01-03T16:20:15.803Z,4.30
2023-01-03T16:22:55.454Z,4.53
2023-01-03T16:25:25.599Z,3.17
2023-01-03T16:27:52.307Z,4.45
2023-01-03T16:30:18.962Z,4.40
2023-01-03T16:32:45.511Z,3.13
2023-01-03T16:35:16.107Z,4.65
2023-01-03T16:37:42.674Z,3.10
2023-01-03T16:40:17.716Z,3.90
2023-01-03T16:42:44.281Z,2.83
2023-01-03T16:45:11.323Z,3.00
2023-01-03T16:47:38.182Z,3.67
2023-01-03T16:50:11.241Z,3.67
2023-01-03T16:52:39.491Z,3.83
2023-01-03T16:55:20.759Z,2.78
2023-01-03T16:57:52.101Z,3.17
2023-01-03T17:00:23.455Z,3.30
2023-01-03T17:02:50.085Z,3.95
2023-01-03T17:05:17.099Z,4.18
2023-01-03T17:07:45.756Z,5.03
2023-01-03T17:10:21.383Z,2.40
2023-01-03T17:12:47.915Z,2.47
2023-01-03T17:15:14.569Z,2.90
2023-01-03T17:17:41.110Z,3.08
2023-01-03T17:20:17.373Z,4.15
2023-01-03T17:22:49.055Z,2.30
2023-01-03T17:25:15.601Z,2.70
2023-01-03T17:27:44.475Z,2.35
2023-01-03T17:30:17.886Z,2.95
2023-01-03T17:35:15.211Z,3.22
2023-01-03T17:38:14.242Z,3.47
2023-01-03T17:40:33.670Z,2.90
2023-01-03T17:43:00.658Z,2.60
2023-01-03T17:45:45.722Z,2.40
2023-01-03T17:48:31.368Z,4.28
2023-01-03T17:50:58.121Z,2.22
2023-01-03T17:53:25.358Z,2.47
2023-01-03T17:55:52.241Z,2.80
2023-01-03T17:58:23.699Z,3.92
2023-01-03T18:00:50.401Z,2.90
2023-01-03T18:03:17.076Z,2.67
2023-01-03T18:05:43.770Z,1.67
2023-01-03T18:08:17.955Z,3.15
2023-01-03T18:10:47.346Z,2.20
2023-01-03T18:13:29.127Z,2.80
2023-01-03T18:15:56.602Z,3.05
2023-01-03T18:18:24.958Z,5.30
2023-01-03T18:20:52.178Z,2.65
2023-01-03T18:23:27.581Z,3.05
2023-01-03T18:25:54.598Z,2.47
2023-01-03T18:28:24.374Z,2.88
2023-01-03T18:30:50.972Z,3.97
2023-01-03T18:33:17.513Z,2.63
2023-01-03T18:35:44.233Z,2.20
2023-01-03T18:38:22.138Z,5.32
2023-01-03T18:40:48.682Z,5.85
2023-01-03T18:43:15.432Z,3.78
2023-01-03T18:45:42.334Z,3.08
2023-01-03T18:48:22.186Z,4.10
2023-01-03T18:50:57.548Z,4.88
2023-01-03T18:53:28.377Z,3.55
2023-01-03T18:55:55.041Z,2.83
2023-01-03T18:58:38.314Z,2.70
2023-01-03T19:01:05.619Z,1.95
2023-01-03T19:03:33.885Z,2.65
2023-01-03T19:06:01.838Z,2.22
2023-01-03T19:08:31.994Z,3.13
2023-01-03T19:11:07.987Z,3.33
2023-01-03T19:13:50.369Z,2.40
2023-01-03T19:16:19.556Z,3.88
2023-01-03T19:18:46.197Z,2.28
2023-01-03T19:21:14.298Z,3.55
2023-01-03T19:23:41.673Z,2.25
2023-01-03T19:26:27.647Z,1.80
2023-01-03T19:28:58.108Z,2.90
2023-01-03T19:31:26.248Z,2.35
2023-01-03T19:33:52.844Z,2.45
2023-01-03T19:36:21.540Z,3.65
2023-01-03T19:38:49.171Z,1.83
2023-01-03T19:41:18.014Z,2.88
2023-01-03T19:43:44.897Z,2.78
2023-01-03T19:46:15.263Z,2.33
2023-01-03T19:48:42.007Z,2.03
2023-01-03T19:51:10.480Z,3.00
2023-01-03T19:53:37.739Z,2.35
2023-01-03T19:56:04.917Z,2.35
2023-01-03T19:58:40.557Z,2.22
2023-01-03T20:01:07.420Z,4.55
2023-01-03T20:03:38.968Z,1.80
2023-01-03T20:06:06.285Z,3.30
2023-01-03T20:08:32.830Z,2.75
2023-01-03T20:10:59.360Z,3.55
2023-01-03T20:13:27.235Z,3.53
2023-01-03T20:15:57.909Z,2.80
2023-01-03T20:18:34.044Z,3.13
2023-01-03T20:21:05.122Z,4.82
2023-01-03T20:23:40.870Z,4.00
2023-01-03T20:26:14.042Z,2.63
2023-01-03T20:28:40.579Z,3.65
2023-01-03T20:31:08.211Z,2.95
2023-01-03T20:33:34.860Z,2.97
2023-01-03T20:36:17.979Z,1.75
2023-01-03T20:38:49.593Z,2.92
2023-01-03T20:41:17.851Z,3.03
2023-01-03T20:43:45.168Z,2.25
2023-01-03T20:46:18.585Z,2.78
2023-01-03T20:51:20.458Z,2.80
2023-01-03T20:53:53.915Z,1.95
2023-01-03T20:56:21.191Z,3.33
2023-01-03T20:58:48.465Z,2.17
2023-01-03T21:01:15.159Z,2.67
2023-01-03T21:03:41.953Z,1.83
2023-01-03T21:06:22.965Z,2.10
2023-01-03T21:08:55.887Z,2.63
2023-01-03T21:11:29.041Z,1.98
2023-01-03T21:13:57.073Z,2.25
2023-01-03T21:16:31.101Z,4.15
2023-01-03T21:19:06.618Z,2.80
2023-01-03T21:21:33.610Z,2.65
2023-01-03T21:24:00.873Z,2.30
2023-01-03T21:26:27.549Z,3.08
2023-01-03T21:28:54.127Z,2.38
2023-01-03T21:31:22.690Z,2.50
2023-01-03T21:33:49.407Z,1.75
2023-01-03T21:36:25.001Z,4.82
2023-01-03T21:38:51.980Z,2.72
2023-01-03T21:41:21.111Z,2.35
2023-01-03T21:43:47.688Z,2.13
2023-01-03T21:46:18.857Z,2.30
2023-01-03T21:48:45.928Z,1.67
2023-01-03T21:51:13.422Z,4.07
2023-01-03T21:53:40.015Z,2.78
2023-01-03T21:56:10.817Z,2.70
2023-01-03T21:58:37.894Z,2.28
2023-01-03T22:01:53.668Z,3.60
2023-01-03T22:04:20.278Z,1.90
2023-01-03T22:06:46.875Z,2.60
2023-01-03T22:09:33.390Z,2.85
2023-01-03T22:11:59.936Z,2.17
2023-01-03T22:14:26.475Z,2.85
2023-01-03T22:16:53.334Z,2.53
2023-01-03T22:19:19.941Z,2.15
2023-01-03T22:21:46.496Z,2.25
2023-01-03T22:24:13.035Z,3.22
2023-01-03T22:26:39.563Z,3.45
2023-01-03T22:29:06.289Z,3.13
2023-01-03T22:31:32.860Z,1.70
2023-01-03T22:33:59.439Z,3.22
2023-01-03T22:36:25.989Z,2.53
2023-01-03T22:38:52.757Z,2.47
2023-01-03T22:41:19.433Z,2.20
2023-01-03T22:43:46.528Z,2.53
2023-01-03T22:46:15.732Z,2.20
2023-01-03T22:48:42.969Z,3.35
2023-01-03T22:51:12.843Z,2.17
2023-01-03T22:53:41.109Z,2.72
2023-01-03T22:56:10.085Z,2.88
2023-01-03T22:58:37.358Z,2.30
2023-01-03T23:01:13.241Z,2.90
2023-01-03T23:03:39.973Z,2.05
2023-01-03T23:06:18.403Z,2.20
2023-01-03T23:08:45.510Z,3.63
2023-01-03T23:11:34.522Z,4.72
2023-01-03T23:14:03.887Z,3.65
2023-01-03T23:16:32.261Z,3.63
2023-01-03T23:19:01.363Z,3.50
2023-01-03T23:21:27.898Z,3.30
2023-01-03T23:23:54.417Z,2.80
2023-01-03T23:26:20.975Z,3.05
2023-01-03T23:28:47.583Z,2.95
2023-01-03T23:31:14.185Z,3.20
2023-01-03T23:33:40.750Z,4.68
2023-01-03T23:36:09.117Z,1.58
2023-01-03T23:38:35.756Z,4.00
2023-01-03T23:41:11.547Z,3.42
2023-01-03T23:43:38.562Z,1.92
2023-01-03T23:46:06.006Z,1.95
2023-01-03T23:48:32.859Z,2.60
2023-01-03T23:51:04.241Z,1.55
2023-01-03T23:53:31.156Z,2.03
2023-01-03T23:55:58.049Z,1.58
2023-01-03T23:58:24.630Z,3.13
